Flight Track Log - Related Links

Times and Time Zones

All times are in EDT time to prevent confusion due to time zone crossing. See the N2368S flight status page for this flight to view local times or setup timezone preferences in your user account.

Time Position Orientation Groundspeed Altitude Reporting Facility
EDT Latitude Longitude Course Direction KTS MPH feet Rate Location/Type
Mon 12:06:31 PM 34.8203 -81.0558 175° South 124 143 2,700  Level Atlanta Center
Mon 12:07:32 PM 34.7867 -81.0494 171° South 125 144 2,800 98 Climbing Atlanta Center
Mon 12:08:33 PM 34.7514 -81.0506 181° South 125 144 2,900 98 Climbing Atlanta Center
Mon 12:10:00 PM 34.7141 -81.0097 138° Southeast  Level FlightAware Approximate
Mon 12:12:00 PM 35.0072 -80.9251 175° South  Level Estimated
Mon 12:17:00 PM 34.4743 -80.9696 175° South  Level Estimated
Mon 12:18:00 PM 34.4421 -80.9544 159° South  Level FlightAware Approximate
Mon 12:19:00 PM 34.4099 -80.9391 159° South  Level FlightAware Approximate
Mon 12:20:00 PM 34.3776 -80.9239 159° South  Level FlightAware Approximate
Mon 12:21:00 PM 34.3454 -80.9087 159° South  Level FlightAware Approximate
Mon 12:22:00 PM 34.3132 -80.8935 159° South  Level FlightAware Approximate
Mon 12:23:00 PM 34.2810 -80.8783 159° South  Level FlightAware Approximate
Mon 12:24:00 PM 34.2487 -80.8631 159° South  Level FlightAware Approximate
Mon 12:25:00 PM 34.2165 -80.8479 159° South  Level FlightAware Approximate
Mon 12:26:00 PM 34.1843 -80.8328 159° South  Level FlightAware Approximate
Mon 12:27:00 PM 34.1498 -80.8288 175° South  Level Estimated
Mon 12:28:00 PM 34.1155 -80.8242 174° South  Level FlightAware Approximate
Mon 12:29:00 PM 34.0811 -80.8195 174° South  Level FlightAware Approximate
Mon 12:30:00 PM 34.0467 -80.8148 174° South  Level FlightAware Approximate
Mon 12:31:00 PM 34.0124 -80.8102 174° South  Level FlightAware Approximate
Mon 12:32:00 PM 33.9780 -80.8055 174° South  Level FlightAware Approximate
Mon 12:33:00 PM 33.9436 -80.8008 174° South  Level FlightAware Approximate
Mon 12:34:00 PM 33.9093 -80.7962 174° South  Level FlightAware Approximate
Mon 12:35:00 PM 33.8749 -80.7915 174° South  Level FlightAware Approximate
Mon 12:36:00 PM 33.8405 -80.7869 174° South  Level FlightAware Approximate
Mon 12:37:00 PM 33.8061 -80.7822 174° South  Level FlightAware Approximate
Mon 12:38:00 PM 33.7718 -80.7776 174° South  Level FlightAware Approximate
Mon 12:39:00 PM 33.7374 -80.7730 174° South  Level FlightAware Approximate
Mon 12:40:00 PM 33.7030 -80.7683 174° South  Level FlightAware Approximate
Mon 12:41:00 PM 33.6687 -80.7637 174° South  Level FlightAware Approximate
Mon 12:42:00 PM 33.6343 -80.7591 174° South  Level FlightAware Approximate
Mon 12:43:00 PM 33.5999 -80.7545 174° South  Level FlightAware Approximate
Mon 12:44:00 PM 33.5655 -80.7509 175° South  Level Estimated
Mon 12:45:00 PM 33.5310 -80.7474 175° South  Level FlightAware Approximate
Mon 12:46:00 PM 33.4966 -80.7438 175° South  Level FlightAware Approximate
Mon 12:47:00 PM 33.4621 -80.7402 175° South  Level FlightAware Approximate
Mon 12:48:00 PM 33.4276 -80.7367 175° South  Level FlightAware Approximate
Mon 12:49:00 PM 33.3932 -80.7331 175° South  Level FlightAware Approximate
Mon 12:50:00 PM 33.3587 -80.7296 175° South  Level FlightAware Approximate
Mon 12:51:00 PM 33.3242 -80.7260 175° South  Level FlightAware Approximate
Mon 12:52:00 PM 33.2898 -80.7225 175° South  Level FlightAware Approximate
Mon 12:53:00 PM 33.2553 -80.7189 175° South  Level FlightAware Approximate
Mon 12:54:00 PM 33.2209 -80.7154 176° South  Level Estimated
Mon 12:55:00 PM 33.1864 -80.7123 176° South  Level FlightAware Approximate
Mon 12:56:00 PM 33.1519 -80.7092 176° South  Level FlightAware Approximate
Mon 12:57:00 PM 33.1174 -80.7060 176° South  Level FlightAware Approximate
Mon 12:58:00 PM 33.0829 -80.7029 176° South  Level FlightAware Approximate
Mon 12:59:00 PM 33.0484 -80.6998 176° South  Level FlightAware Approximate
Mon 01:00:00 PM 33.0139 -80.6966 176° South  Level FlightAware Approximate
Mon 01:01:00 PM 32.9794 -80.6935 176° South  Level FlightAware Approximate
Mon 01:02:00 PM 32.9450 -80.6904 176° South  Level FlightAware Approximate
Mon 01:03:00 PM 32.9105 -80.6873 176° South  Level FlightAware Approximate
Mon 01:04:00 PM 32.8760 -80.6836 175° South  Level Estimated
Mon 01:05:00 PM 32.8416 -80.6799 175° South  Level FlightAware Approximate
Mon 01:06:00 PM 32.8071 -80.6763 175° South  Level FlightAware Approximate
Mon 01:07:00 PM 32.7727 -80.6726 175° South  Level FlightAware Approximate
Mon 01:08:00 PM 32.7382 -80.6690 157° South  Level Estimated
Mon 01:09:00 PM 32.7050 -80.6575 164° South  Level FlightAware Approximate
Mon 01:10:00 PM 32.6705 -80.6547 175° South  Level Estimated
Mon 01:11:00 PM 32.6361 -80.6500 173° South  Level FlightAware Approximate
Mon 01:12:00 PM 32.6018 -80.6452 173° South  Level FlightAware Approximate
Mon 01:13:00 PM 32.5674 -80.6404 173° South  Level FlightAware Approximate
Mon 01:14:00 PM 32.5329 -80.6391 180° South  Level Estimated
Mon 01:15:00 PM 32.4983 -80.6377 180° South  Level Estimated
Mon 01:16:00 PM 32.4637 -80.6362 178° South  Level FlightAware Approximate
Mon 01:17:00 PM 32.4292 -80.6346 178° South  Level FlightAware Approximate
Mon 01:18:00 PM 32.4122 -80.6344 180° South  Level Estimated
Mon 01:19:00 PM 32.4122 -80.6344 180° South  Level Estimated
Mon 01:20:00 PM 32.4122 -80.6344 180° South  Level Estimated
Mon 01:21:00 PM 32.4122 -80.6344 180° South  Level Estimated
Mon 01:22:00 PM 32.4122 -80.6344 180° South  Level Estimated
Mon 01:23:00 PM 32.4122 -80.6344 180° South  Level Estimated
Mon 01:24:00 PM 32.4122 -80.6344 180° South  Level Estimated
Mon 01:25:00 PM 32.4122 -80.6344 180° South  Level Estimated
Mon 01:26:00 PM 32.4122 -80.6344 180° South  Level Estimated
Mon 01:27:00 PM 32.4122 -80.6344 180° South  Level Estimated
Mon 01:28:00 PM 32.4122 -80.6344 180° South  Level Estimated
Mon 01:29:00 PM 32.4122 -80.6344 180° South  Level Estimated
Mon 01:30:00 PM 32.4122 -80.6344 180° South  Level Estimated
Mon 01:31:00 PM 32.4122 -80.6344 180° South  Level Estimated
Mon 01:32:00 PM 32.4122 -80.6344 180° South  Level Estimated
Mon 01:33:00 PM 32.4122 -80.6344 180° South  Level Estimated
Mon 01:34:00 PM 32.4122 -80.6344 180° South  Level Estimated
Mon 01:35:00 PM 32.4122 -80.6344 180° South  Level Estimated
Mon 01:36:00 PM 32.4122 -80.6344 180° South  Level Estimated
Mon 01:37:00 PM 32.4122 -80.6344 180° South  Level Estimated
Mon 01:38:00 PM 32.4122 -80.6344 180° South  Level Estimated
Mon 01:39:00 PM 32.4122 -80.6344 180° South  Level Estimated
Mon 01:40:00 PM 32.4122 -80.6344 180° South  Level Estimated
Mon 01:41:00 PM 32.4122 -80.6344 180° South  Level Estimated
Mon 01:42:00 PM 32.4122 -80.6344 180° South  Level Estimated
Mon 01:43:00 PM 32.4122 -80.6344 180° South  Level Estimated

Login

Don't have an account? Register now (free) for customized features, flight alerts, and more!